Time;durP1;ratioP1;P1;durP2;ratioP2;P2;SDS_P1;SDS_P2;PMS_P1;PMS_P2;Temp;Humidity;BMP_temperature;BMP_pressure;BME280_temperature;BME280_humidity;BME280_pressure;Samples;Min_cycle;Max_cycle;Signal;HPM_P1;HPM_P2
2022/03/19 00:01:52;;;;;;;;;;;;;;;3.30;70.51;101780.19;5041200;28;20394;-80
2022/03/19 00:04:17;;;;;;;;;;;;;;;3.32;70.42;101773.28;5041256;28;20019;-79
2022/03/19 00:06:45;;;;;;;;;;;;;;;3.31;70.31;101775.84;5024917;28;20425;-80
2022/03/19 00:09:10;;;;;;;;;;;;;;;3.31;70.32;101787.22;5042960;28;19921;-79
2022/03/19 00:11:35;;;;;;;;;;;;;;;3.34;70.64;101776.78;5024711;28;19970;-79
2022/03/19 00:14:01;;;;;;;;;;;;;;;3.37;70.89;101781.22;5043271;28;19928;-78
2022/03/19 00:16:26;;;;;;;;;;;;;;;3.36;70.67;101784.69;5041492;28;19943;-79
2022/03/19 00:18:51;;;;;;;;;;;;;;;3.37;70.70;101775.97;5042855;28;19924;-80
2022/03/19 00:21:17;;;;;;;;;;;;;;;3.35;70.41;101781.19;5042551;28;19925;-80
2022/03/19 00:23:44;;;;;;;;;;;;;;;3.37;70.46;101773.34;5041135;28;19925;-79
2022/03/19 00:26:09;;;;;;;;;;;;;;;3.40;70.53;101771.66;5041948;28;19925;-78
2022/03/19 00:28:38;;;;;;;;;;;;;;;3.38;70.44;101773.38;5042113;28;20356;-79
2022/03/19 00:31:04;;;;;;;;;;;;;;;3.38;70.30;101778.63;5041828;28;19941;-79
2022/03/19 00:33:29;;;;;;;;;;;;;;;3.41;70.12;101772.53;5042439;28;20286;-80
2022/03/19 00:35:54;;;;;;;;;;;;;;;3.43;70.18;101769.09;5041060;28;19947;-79
2022/03/19 00:38:19;;;;;;;;;;;;;;;3.44;70.11;101767.34;5041816;28;19929;-79
2022/03/19 00:40:46;;;;;;;;;;;;;;;3.44;69.97;101772.59;5026271;28;19951;-80
2022/03/19 00:43:11;;;;;;;;;;;;;;;3.46;70.15;101770.88;5020138;28;19971;-80
2022/03/19 00:45:36;;;;;;;;;;;;;;;3.45;70.01;101769.13;5040622;28;20007;-80
2022/03/19 00:48:02;;;;;;;;;;;;;;;3.48;70.12;101770.91;5018777;28;20004;-82
2022/03/19 00:50:27;;;;;;;;;;;;;;;3.50;70.11;101767.47;5037371;28;19925;-78
2022/03/19 00:52:54;;;;;;;;;;;;;;;3.70;72.05;101765.22;5030963;28;20357;-78
2022/03/19 00:55:19;;;;;;;;;;;;;;;3.84;74.62;101769.78;5044267;28;19925;-79
2022/03/19 00:57:46;;;;;;;;;;;;;;;3.90;76.75;101768.13;5042404;28;20364;-81
2022/03/19 01:00:13;;;;;;;;;;;;;;;3.93;78.81;101767.31;5042096;28;20039;-79
2022/03/19 01:02:40;;;;;;;;;;;;;;;4.96;79.82;101760.84;5024316;28;20368;-79
2022/03/19 01:05:06;;;;;;;;;;;;;;;4.32;81.13;101763.53;5023770;28;19921;-79
2022/03/19 01:07:31;;;;;;;;;;;;;;;4.08;82.90;101771.91;5041445;28;19928;-85
2022/03/19 01:09:56;;;;;;;;;;;;;;;3.98;84.20;101760.41;5038900;28;20462;-81
2022/03/19 01:12:22;;;;;;;;;;;;;;;3.86;85.45;101761.09;5042030;28;19944;-81
2022/03/19 01:14:47;;;;;;;;;;;;;;;3.78;86.65;101762.69;5024672;28;19924;-81
2022/03/19 01:17:12;;;;;;;;;;;;;;;3.76;87.71;101760.03;5037959;28;20024;-80
2022/03/19 01:19:54;;;;;;;;;;;;;;;3.79;88.58;101762.72;5028099;28;20039;-81
2022/03/19 01:22:21;;;;;;;;;;;;;;;3.75;89.86;101754.75;5023879;28;19921;-82
2022/03/19 01:24:47;;;;;;;;;;;;;;;3.77;91.43;101753.94;5032354;28;19917;-80
2022/03/19 01:27:12;;;;;;;;;;;;;;;3.84;94.26;101746.19;5015213;28;19928;-81
2022/03/19 01:29:38;;;;;;;;;;;;;;;4.05;97.08;101750.88;5038423;28;19936;-80
2022/03/19 01:32:04;;;;;;;;;;;;;;;4.24;99.77;101758.16;5040664;28;20015;-81
2022/03/19 01:34:29;;;;;;;;;;;;;;;4.35;100.00;101753.94;5026631;28;20016;-80
2022/03/19 01:36:55;;;;;;;;;;;;;;;4.41;100.00;101758.41;5035635;28;20111;-80
2022/03/19 01:39:20;;;;;;;;;;;;;;;4.47;100.00;101755.88;5042755;28;19921;-81
2022/03/19 01:41:45;;;;;;;;;;;;;;;4.54;100.00;101762.94;5040349;28;20383;-80
2022/03/19 01:44:21;;;;;;;;;;;;;;;4.59;100.00;101742.00;5033194;28;19975;-80
2022/03/19 01:46:55;;;;;;;;;;;;;;;4.63;100.00;101748.22;5032663;28;20024;-80
2022/03/19 01:49:21;;;;;;;;;;;;;;;4.67;100.00;101745.63;5041489;28;19964;-81
2022/03/19 01:51:46;;;;;;;;;;;;;;;4.70;100.00;101736.91;5022329;28;19972;-81
2022/03/19 01:54:11;;;;;;;;;;;;;;;4.77;100.00;101736.13;5032029;28;19921;-81
2022/03/19 01:56:37;;;;;;;;;;;;;;;4.78;100.00;101731.75;5032445;28;19972;-79
2022/03/19 01:59:03;;;;;;;;;;;;;;;4.80;100.00;101733.50;5021624;28;19921;-80
2022/03/19 02:01:28;;;;;;;;;;;;;;;4.82;100.00;101731.81;5020950;28;19933;-81
2022/03/19 02:03:54;;;;;;;;;;;;;;;4.86;100.00;101737.97;5042546;28;20350;-82
2022/03/19 02:06:22;;;;;;;;;;;;;;;4.89;100.00;101738.88;5043069;28;19917;-82
2022/03/19 02:08:48;;;;;;;;;;;;;;;4.90;100.00;101739.78;5042051;28;20283;-82
2022/03/19 02:11:13;;;;;;;;;;;;;;;4.98;100.00;101734.59;5042717;28;19920;-82
2022/03/19 02:13:39;;;;;;;;;;;;;;;4.93;100.00;101728.41;5037518;28;19921;-82
2022/03/19 02:16:05;;;;;;;;;;;;;;;4.96;100.00;101731.06;5041337;28;19921;-81
2022/03/19 02:18:30;;;;;;;;;;;;;;;4.96;100.00;101723.19;5008260;28;19917;-81
2022/03/19 02:20:57;;;;;;;;;;;;;;;5.02;100.00;101733.78;5042284;28;19917;-81
2022/03/19 02:26:07;;;;;;;;;;;;;;;5.07;100.00;101724.19;5042689;28;19924;-81
2022/03/19 02:28:32;;;;;;;;;;;;;;;5.08;100.00;101723.34;5037172;28;20285;-81
2022/03/19 02:30:57;;;;;;;;;;;;;;;5.13;100.00;101723.38;5017938;28;19925;-82
2022/03/19 02:33:22;;;;;;;;;;;;;;;5.13;100.00;101729.50;5041841;28;20039;-82
2022/03/19 02:35:48;;;;;;;;;;;;;;;5.13;100.00;101726.88;5024097;28;19929;-80
2022/03/19 02:38:13;;;;;;;;;;;;;;;5.16;100.00;101721.66;5029883;28;20373;-81
2022/03/19 02:40:38;;;;;;;;;;;;;;;5.21;100.00;101716.47;5039368;28;19920;-80
2022/03/19 04:26:41;;;;;;;;;;;;;;;3.42;94.61;101701.81;5692343;23;19937;-82
2022/03/19 04:29:07;;;;;;;;;;;;;;;3.39;93.76;101699.13;5015654;28;19925;-83
2022/03/19 04:31:32;;;;;;;;;;;;;;;3.55;93.23;101702.03;5044994;28;19943;-82
2022/03/19 04:33:57;;;;;;;;;;;;;;;3.36;92.90;101701.69;5026391;28;19921;-83
2022/03/19 04:39:17;;;;;;;;;;;;;;;3.33;92.06;101688.53;5030454;28;19925;-80
2022/03/19 04:41:42;;;;;;;;;;;;;;;3.13;92.25;101698.69;5019985;28;19928;-81
2022/03/19 04:44:08;;;;;;;;;;;;;;;3.31;91.83;101695.50;5043351;28;20287;-82
2022/03/19 04:46:34;;;;;;;;;;;;;;;3.17;91.45;101691.75;5044082;28;20273;-79
2022/03/19 04:48:59;;;;;;;;;;;;;;;3.19;91.48;101703.13;5026341;28;19921;-80
2022/03/19 04:51:29;;;;;;;;;;;;;;;3.16;90.98;101697.84;5044195;28;19917;-79
2022/03/19 04:53:55;;;;;;;;;;;;;;;3.13;90.56;101693.44;5043197;28;19971;-80
2022/03/19 04:56:22;;;;;;;;;;;;;;;3.12;90.51;101698.66;5043150;28;19916;-79
2022/03/19 04:58:48;;;;;;;;;;;;;;;3.09;90.26;101692.50;5026090;28;19921;-78
2022/03/19 05:01:14;;;;;;;;;;;;;;;3.11;89.81;101695.13;5019280;28;20371;-81
2022/03/19 05:03:39;;;;;;;;;;;;;;;3.17;89.41;101691.75;5043626;28;20295;-81
2022/03/19 05:06:04;;;;;;;;;;;;;;;3.05;88.68;101688.06;5043976;28;20015;-78
2022/03/19 05:08:29;;;;;;;;;;;;;;;3.05;88.24;101684.56;5043610;28;19995;-82
2022/03/19 05:11:13;;;;;;;;;;;;;;;3.03;88.28;101683.63;5024366;28;19928;-79
2022/03/19 05:13:43;;;;;;;;;;;;;;;3.08;87.96;101680.25;5043644;28;19961;-81
2022/03/19 05:16:08;;;;;;;;;;;;;;;2.91;87.75;101681.69;5043429;28;19928;-80
2022/03/19 05:18:33;;;;;;;;;;;;;;;2.92;88.01;101680.84;5026138;28;19917;-78
2022/03/19 05:20:59;;;;;;;;;;;;;;;2.91;87.91;101679.06;5025497;28;19963;-79
2022/03/19 05:23:24;;;;;;;;;;;;;;;2.81;87.68;101683.25;5043145;28;19916;-78
2022/03/19 05:25:49;;;;;;;;;;;;;;;2.81;87.21;101679.72;5042358;28;19924;-78
2022/03/19 05:28:15;;;;;;;;;;;;;;;2.77;86.93;101686.66;5025431;28;19929;-80
2022/03/19 05:30:40;;;;;;;;;;;;;;;2.94;87.83;101686.13;5042047;28;20295;-80
2022/03/19 05:33:05;;;;;;;;;;;;;;;3.05;90.18;101681.94;5041906;28;19916;-79
2022/03/19 05:35:31;;;;;;;;;;;;;;;2.99;91.05;101682.72;5041498;28;20434;-78
2022/03/19 05:37:59;;;;;;;;;;;;;;;3.15;90.58;101686.50;5041635;28;19976;-80
2022/03/19 05:40:25;;;;;;;;;;;;;;;2.99;90.41;101690.56;5042623;28;19925;-79
2022/03/19 05:42:50;;;;;;;;;;;;;;;2.89;90.21;101688.63;5040311;28;20023;-79
2022/03/19 05:45:15;;;;;;;;;;;;;;;2.96;90.21;101685.25;5041613;28;19933;-81
2022/03/19 05:47:42;;;;;;;;;;;;;;;2.91;90.28;101697.41;5041248;28;19923;-80
2022/03/19 05:50:07;;;;;;;;;;;;;;;2.90;89.58;101690.38;5041793;28;19983;-78
2022/03/19 05:52:32;;;;;;;;;;;;;;;2.78;89.45;101692.78;5041397;28;19917;-79
2022/03/19 05:54:58;;;;;;;;;;;;;;;2.81;89.62;101683.25;5024641;28;19920;-81
2022/03/19 05:57:23;;;;;;;;;;;;;;;2.81;88.97;101691.09;5040002;28;19921;-81
2022/03/19 05:59:48;;;;;;;;;;;;;;;2.69;88.61;101696.97;5041751;28;19921;-81
2022/03/19 06:02:13;;;;;;;;;;;;;;;2.67;88.56;101682.97;5040670;28;20119;-80
2022/03/19 06:04:39;;;;;;;;;;;;;;;2.63;88.40;101686.41;5025061;28;19924;-79
2022/03/19 06:07:04;;;;;;;;;;;;;;;2.60;88.68;101690.66;5024387;28;20277;-81
2022/03/19 06:09:29;;;;;;;;;;;;;;;2.53;88.73;101694.91;5023609;28;19924;-78
2022/03/19 06:11:55;;;;;;;;;;;;;;;2.53;88.60;101690.53;5031876;28;19999;-81
2022/03/19 08:42:24;;;;;;;;;;;;;;;2.34;81.26;101651.78;4964903;28;19945;-79
2022/03/19 08:44:50;;;;;;;;;;;;;;;2.37;80.93;101641.38;4974935;28;20459;-80
2022/03/19 08:47:15;;;;;;;;;;;;;;;2.38;80.75;101642.25;4972135;28;19918;-80
2022/03/19 08:49:42;;;;;;;;;;;;;;;2.41;80.69;101650.16;4965491;28;20210;-80
2022/03/19 08:52:07;;;;;;;;;;;;;;;2.43;80.67;101640.63;4964460;28;19989;-78
2022/03/19 08:54:33;;;;;;;;;;;;;;;2.50;80.98;101642.50;4965450;28;19922;-79
2022/03/19 08:56:58;;;;;;;;;;;;;;;2.45;80.43;101649.38;4965244;28;20028;-80
2022/03/19 08:59:23;;;;;;;;;;;;;;;2.49;80.57;101640.72;4965430;28;19944;-80
2022/03/19 09:01:50;;;;;;;;;;;;;;;2.54;80.92;101645.22;4964475;28;20334;-79
2022/03/19 09:04:15;;;;;;;;;;;;;;;2.48;80.42;101638.97;4965387;28;19922;-79
2022/03/19 09:06:41;;;;;;;;;;;;;;;2.52;80.48;101641.69;4964065;28;19937;-79
2022/03/19 09:09:06;;;;;;;;;;;;;;;2.61;80.66;101633.13;4964268;28;19922;-79
2022/03/19 09:11:32;;;;;;;;;;;;;;;2.61;80.86;101633.13;4965355;28;19922;-79
2022/03/19 09:13:58;;;;;;;;;;;;;;;2.58;80.07;101625.19;4965167;28;19919;-80
2022/03/19 09:16:24;;;;;;;;;;;;;;;2.55;79.56;101640.84;4965277;28;19930;-80
2022/03/19 09:18:50;;;;;;;;;;;;;;;2.63;80.33;101634.06;4965661;28;19918;-81
2022/03/19 09:21:15;;;;;;;;;;;;;;;2.60;79.88;101623.53;4965372;28;19927;-80
2022/03/19 09:23:42;;;;;;;;;;;;;;;2.60;79.70;101625.22;4963729;28;19925;-78
2022/03/19 09:26:07;;;;;;;;;;;;;;;2.59;79.35;101626.09;4964921;28;19918;-78
2022/03/19 09:28:32;;;;;;;;;;;;;;;2.59;79.08;101620.88;4954858;28;19929;-79
2022/03/19 09:30:58;;;;;;;;;;;;;;;2.59;78.72;101620.88;4964117;28;20061;-80
2022/03/19 09:33:24;;;;;;;;;;;;;;;2.61;78.90;101620.03;4964510;28;19965;-80
2022/03/19 09:35:49;;;;;;;;;;;;;;;2.67;79.10;101619.28;4971932;28;19961;-81
2022/03/19 09:38:15;;;;;;;;;;;;;;;2.63;79.00;101613.09;4963629;28;20028;-81
2022/03/19 09:40:41;;;;;;;;;;;;;;;2.64;78.66;101601.75;4963788;28;19926;-81
2022/03/19 09:43:07;;;;;;;;;;;;;;;2.72;78.64;101594.06;4964680;28;20533;-78
2022/03/19 09:45:34;;;;;;;;;;;;;;;2.61;78.43;101596.47;4963858;28;19922;-81
2022/03/19 09:47:59;;;;;;;;;;;;;;;2.68;78.35;101600.97;4963719;28;20258;-80
2022/03/19 09:50:26;;;;;;;;;;;;;;;2.80;79.08;101595.06;4963691;28;19926;-79
2022/03/19 09:52:54;;;;;;;;;;;;;;;2.79;78.79;101585.44;4954267;28;19922;-79
2022/03/19 09:55:20;;;;;;;;;;;;;;;2.76;78.38;101588.03;4964514;28;20349;-77
2022/03/19 09:57:46;;;;;;;;;;;;;;;2.78;78.34;101590.69;4964480;28;19966;-79
2022/03/19 10:00:11;;;;;;;;;;;;;;;2.76;78.17;101571.44;4964420;28;20273;-79
2022/03/19 10:03:09;;;;;;;;;;;;;;;2.75;77.77;101574.91;4964735;28;19918;-78
2022/03/19 10:08:39;;;;;;;;;;;;;;;2.88;78.67;101556.81;4963330;28;19926;-80
2022/03/19 10:11:09;;;;;;;;;;;;;;;2.93;78.60;101562.13;4963483;28;19919;-78
2022/03/19 10:13:38;;;;;;;;;;;;;;;2.97;79.03;101553.47;4963497;28;19930;-78
2022/03/19 10:16:03;;;;;;;;;;;;;;;2.97;78.86;101550.84;4964878;28;20392;-81
2022/03/19 10:18:30;;;;;;;;;;;;;;;3.05;78.81;101541.38;4964495;28;19922;-79
2022/03/19 10:20:58;;;;;;;;;;;;;;;3.01;78.42;101536.94;4963437;28;19922;-77
2022/03/19 10:23:39;;;;;;;;;;;;;;;3.01;78.06;101534.31;4963206;28;19919;-80
2022/03/19 10:26:04;;;;;;;;;;;;;;;2.98;78.05;101528.16;4964620;28;19925;-79
2022/03/19 10:28:30;;;;;;;;;;;;;;;3.01;77.68;101530.84;4964146;28;19922;-81
2022/03/19 10:30:56;;;;;;;;;;;;;;;3.01;77.57;101534.31;4963231;28;19918;-77
2022/03/19 10:33:26;;;;;;;;;;;;;;;3.00;77.38;101523.81;4964250;28;20336;-78
2022/03/19 10:35:51;;;;;;;;;;;;;;;2.97;76.92;101529.91;4964232;28;19930;-78
2022/03/19 10:38:18;;;;;;;;;;;;;;;2.99;76.89;101517.72;4959846;28;19922;-79
2022/03/19 10:40:46;;;;;;;;;;;;;;;2.96;76.35;101514.16;4952593;28;19923;-79
2022/03/19 10:43:12;;;;;;;;;;;;;;;3.04;77.00;101515.16;4952342;29;19918;-78
2022/03/19 10:45:42;;;;;;;;;;;;;;;3.08;77.21;101512.63;4952949;29;19928;-78
2022/03/19 10:48:09;;;;;;;;;;;;;;;3.04;76.96;101513.41;4951147;29;19938;-80
2022/03/19 10:50:38;;;;;;;;;;;;;;;3.05;77.20;101512.56;4952202;29;19925;-81
2022/03/19 10:53:03;;;;;;;;;;;;;;;3.15;77.42;101504.88;4951129;28;19922;-78
2022/03/19 10:55:29;;;;;;;;;;;;;;;3.16;77.55;101503.97;4952163;29;19929;-80
2022/03/19 10:57:54;;;;;;;;;;;;;;;3.17;77.92;101509.25;4952209;29;19926;-77
2022/03/19 11:00:19;;;;;;;;;;;;;;;3.23;78.00;101513.72;4960074;28;19962;-77
2022/03/19 11:02:47;;;;;;;;;;;;;;;3.24;77.68;101494.53;4948569;29;19970;-78
2022/03/19 11:05:13;;;;;;;;;;;;;;;3.21;77.07;101507.56;4949435;29;19918;-78
2022/03/19 11:07:42;;;;;;;;;;;;;;;3.21;76.72;101486.63;4949939;29;20342;-78
2022/03/19 11:10:07;;;;;;;;;;;;;;;3.17;76.16;101500.53;4952238;29;19919;-77
2022/03/19 11:12:34;;;;;;;;;;;;;;;3.18;76.08;101492.69;4952254;29;20364;-78
2022/03/19 11:15:02;;;;;;;;;;;;;;;3.12;75.68;101491.72;4951123;29;19926;-80
2022/03/19 11:17:32;;;;;;;;;;;;;;;3.17;75.49;101479.56;4951976;29;20305;-79
2022/03/19 11:20:01;;;;;;;;;;;;;;;3.16;75.34;101469.94;4951369;29;19918;-77
2022/03/19 11:22:40;;;;;;;;;;;;;;;3.16;75.21;101480.41;4948626;29;19926;-78
2022/03/19 11:25:08;;;;;;;;;;;;;;;3.16;74.97;101473.44;4952038;29;19977;-77
2022/03/19 11:27:38;;;;;;;;;;;;;;;3.19;75.00;101457.78;4951842;29;20274;-78
2022/03/19 11:30:05;;;;;;;;;;;;;;;3.20;74.83;101453.41;4951495;29;19970;-77
2022/03/19 11:32:31;;;;;;;;;;;;;;;3.23;74.84;101456.94;4950829;29;20362;-78
2022/03/19 11:34:59;;;;;;;;;;;;;;;3.23;74.65;101450.84;4951859;29;19929;-78
2022/03/19 11:37:43;;;;;;;;;;;;;;;3.23;74.61;101448.22;4950280;29;19925;-77
2022/03/19 11:40:11;;;;;;;;;;;;;;;3.24;74.64;101442.13;4951727;29;20293;-77
2022/03/19 11:42:49;;;;;;;;;;;;;;;3.26;74.37;101441.28;4951571;29;19919;-78
2022/03/19 11:45:15;;;;;;;;;;;;;;;3.28;74.30;101436.06;4951799;29;19926;-80
2022/03/19 11:47:40;;;;;;;;;;;;;;;3.28;74.40;101430.81;4950742;29;20380;-80
2022/03/19 11:50:19;;;;;;;;;;;;;;;3.37;75.32;101425.69;4951886;29;19981;-79
2022/03/19 11:52:53;;;;;;;;;;;;;;;3.35;75.11;101421.28;4953400;28;20007;-78
2022/03/19 11:55:19;;;;;;;;;;;;;;;3.35;75.30;101416.94;4954910;29;19925;-80
2022/03/19 11:57:49;;;;;;;;;;;;;;;3.41;75.18;101416.13;4955643;29;19987;-78
2022/03/19 12:00:19;;;;;;;;;;;;;;;3.38;74.94;101409.13;4955036;29;19993;-78
2022/03/19 12:03:02;;;;;;;;;;;;;;;3.38;74.99;101393.41;4954714;29;19923;-77
2022/03/19 12:05:28;;;;;;;;;;;;;;;3.42;74.81;101392.56;4955770;29;20054;-77
2022/03/19 12:07:54;;;;;;;;;;;;;;;3.44;74.63;101393.44;4952656;29;20013;-77
2022/03/19 12:10:27;;;;;;;;;;;;;;;3.47;74.84;101374.28;4955021;28;19925;-78
2022/03/19 12:12:54;;;;;;;;;;;;;;;3.50;74.76;101378.69;4955326;29;20013;-77
2022/03/19 12:15:32;;;;;;;;;;;;;;;3.51;74.87;101365.59;4939084;29;19968;-77
2022/03/19 12:18:15;;;;;;;;;;;;;;;3.53;74.80;101361.25;4955145;29;20486;-78
2022/03/19 12:20:43;;;;;;;;;;;;;;;3.50;74.50;101362.97;4954895;29;19966;-78
2022/03/19 12:23:11;;;;;;;;;;;;;;;3.47;74.27;101358.56;4937246;29;20355;-77
2022/03/19 12:25:41;;;;;;;;;;;;;;;3.51;74.07;101349.88;4955434;29;20005;-78
2022/03/19 12:28:08;;;;;;;;;;;;;;;3.59;74.59;101337.72;4953639;29;19923;-78
2022/03/19 12:30:35;;;;;;;;;;;;;;;3.60;74.71;101330.72;4954416;29;19918;-78
2022/03/19 12:33:00;;;;;;;;;;;;;;;3.60;74.68;101333.34;4953752;29;19915;-78
2022/03/19 12:35:36;;;;;;;;;;;;;;;3.57;74.33;101322.81;4953092;29;19929;-80
2022/03/19 12:38:01;;;;;;;;;;;;;;;3.56;74.05;101321.09;4950231;29;20001;-77
2022/03/19 12:41:23;;;;;;;;;;;;;;;3.58;74.06;101308.88;4950915;29;20583;-78
2022/03/19 12:43:13;;;;;;;;;;;;;;;3.61;73.92;101301.91;4951057;28;20305;-78
2022/03/19 12:45:40;;;;;;;;;;;;;;;3.59;73.93;101298.41;4938590;29;19919;-78
2022/03/19 12:48:09;;;;;;;;;;;;;;;3.61;73.87;101294.03;4953095;29;20282;-79
2022/03/19 12:50:34;;;;;;;;;;;;;;;3.72;74.83;101294.16;4938659;29;20346;-78
2022/03/19 12:52:59;;;;;;;;;;;;;;;3.94;76.76;101287.34;4949230;29;19990;-79
2022/03/19 12:55:25;;;;;;;;;;;;;;;4.08;79.12;101278.72;4954508;28;19945;-78
2022/03/19 12:57:54;;;;;;;;;;;;;;;4.10;80.79;101280.50;4951090;29;19926;-79
2022/03/19 13:00:19;;;;;;;;;;;;;;;4.14;82.25;101284.88;4954280;28;20303;-77
2022/03/19 13:02:48;;;;;;;;;;;;;;;4.10;83.14;101267.38;4960743;28;20605;-78
2022/03/19 13:05:14;;;;;;;;;;;;;;;4.06;84.10;101265.56;4937131;29;19924;-78
2022/03/19 13:07:39;;;;;;;;;;;;;;;3.99;84.78;101269.03;4955317;28;20293;-80
2022/03/19 13:10:14;;;;;;;;;;;;;;;3.95;85.71;101256.75;4953643;28;20008;-78
2022/03/19 13:12:39;;;;;;;;;;;;;;;3.86;86.73;101256.66;4951167;29;19930;-79
2022/03/19 13:15:14;;;;;;;;;;;;;;;3.81;87.40;101252.28;4954019;28;19922;-80
2022/03/19 13:17:39;;;;;;;;;;;;;;;3.71;88.46;101232.09;4953562;28;19922;-80
2022/03/19 13:20:10;;;;;;;;;;;;;;;3.76;89.01;101235.63;4953863;28;19945;-78
2022/03/19 13:22:35;;;;;;;;;;;;;;;3.75;90.55;101230.34;4936071;29;20374;-78
2022/03/19 13:25:01;;;;;;;;;;;;;;;3.88;93.60;101228.72;4951573;29;19955;-78
2022/03/19 13:27:27;;;;;;;;;;;;;;;4.19;97.06;101230.69;4961705;28;19925;-78
2022/03/19 13:29:56;;;;;;;;;;;;;;;4.34;100.00;101229.00;4961187;28;20380;-79
2022/03/19 13:32:22;;;;;;;;;;;;;;;4.49;100.00;101223.00;4953185;29;19970;-78
2022/03/19 13:34:49;;;;;;;;;;;;;;;4.62;100.00;101218.69;4953186;29;19966;-78
2022/03/19 13:37:19;;;;;;;;;;;;;;;4.60;100.00;101215.19;4949676;29;19933;-78
2022/03/19 13:39:56;;;;;;;;;;;;;;;4.72;100.00;101204.69;4938501;29;19931;-78
2022/03/19 13:42:28;;;;;;;;;;;;;;;4.78;100.00;101202.09;4934364;29;19928;-78
2022/03/19 13:45:05;;;;;;;;;;;;;;;4.76;100.00;101195.97;4918955;29;19926;-79
2022/03/19 13:47:39;;;;;;;;;;;;;;;4.83;100.00;101205.63;4935962;29;19919;-80
2022/03/19 13:50:07;;;;;;;;;;;;;;;4.85;100.00;101189.84;4936171;29;19993;-78
2022/03/19 13:52:34;;;;;;;;;;;;;;;4.86;100.00;101181.97;4934170;29;19926;-81
2022/03/19 13:55:01;;;;;;;;;;;;;;;4.89;100.00;101187.25;4934419;29;19966;-81
2022/03/19 13:57:37;;;;;;;;;;;;;;;4.91;100.00;101180.28;4935952;29;19919;-78
2022/03/19 14:00:06;;;;;;;;;;;;;;;4.93;100.00;101188.16;4935292;29;20405;-78
2022/03/19 14:02:32;;;;;;;;;;;;;;;4.99;100.00;101177.63;4936021;29;19982;-78
2022/03/19 14:05:02;;;;;;;;;;;;;;;5.00;100.00;101176.78;4935643;29;19923;-80
2022/03/19 14:07:46;;;;;;;;;;;;;;;5.03;100.00;101179.41;4917118;29;19922;-78
2022/03/19 14:10:11;;;;;;;;;;;;;;;5.09;100.00;101178.56;4918646;29;19990;-78
2022/03/19 14:12:38;;;;;;;;;;;;;;;5.21;100.00;101159.31;4935822;29;20454;-78
2022/03/19 14:15:05;;;;;;;;;;;;;;;5.14;100.00;101168.94;4935394;29;20477;-79
2022/03/19 14:17:47;;;;;;;;;;;;;;;5.22;100.00;101154.03;4935546;29;19922;-78
2022/03/19 14:20:12;;;;;;;;;;;;;;;5.27;100.00;101147.03;4918451;29;19919;-78
2022/03/19 14:22:38;;;;;;;;;;;;;;;5.25;100.00;101146.16;4934041;29;19923;-77
2022/03/19 14:25:03;;;;;;;;;;;;;;;5.30;100.00;101140.00;4935530;29;19923;-78
2022/03/19 14:27:29;;;;;;;;;;;;;;;5.25;100.00;101143.53;4918253;29;19930;-81
2022/03/19 14:29:54;;;;;;;;;;;;;;;4.53;100.00;101152.13;4917939;29;20013;-78
2022/03/19 14:32:19;;;;;;;;;;;;;;;4.06;100.00;101138.81;4918130;29;19920;-78
2022/03/19 14:34:45;;;;;;;;;;;;;;;3.98;100.00;101141.38;4935179;29;20306;-81
2022/03/19 14:37:11;;;;;;;;;;;;;;;3.74;98.48;101135.09;4934071;29;19918;-81
2022/03/19 14:39:36;;;;;;;;;;;;;;;3.69;96.91;101131.59;4948856;28;19994;-81
2022/03/19 14:42:02;;;;;;;;;;;;;;;3.55;95.99;101128.84;4953411;28;20458;-81
2022/03/19 14:44:28;;;;;;;;;;;;;;;3.66;94.70;101118.44;4953601;28;20005;-81
2022/03/19 14:46:53;;;;;;;;;;;;;;;3.57;93.58;101123.63;4953316;28;20061;-80
2022/03/19 14:49:18;;;;;;;;;;;;;;;3.35;93.54;101120.84;4952652;29;19922;-80
2022/03/19 14:51:43;;;;;;;;;;;;;;;3.36;93.21;101114.72;4954083;28;19918;-79
2022/03/19 14:54:09;;;;;;;;;;;;;;;3.51;91.81;101110.47;4952786;29;20354;-80
2022/03/19 14:56:36;;;;;;;;;;;;;;;3.30;91.37;101116.44;4946922;29;20258;-80
2022/03/19 14:59:01;;;;;;;;;;;;;;;3.20;91.54;101112.84;4936907;29;20346;-81
2022/03/19 15:01:29;;;;;;;;;;;;;;;3.17;91.02;101118.94;4952237;28;19923;-80
2022/03/19 15:03:54;;;;;;;;;;;;;;;3.27;90.02;101112.94;4936404;28;19925;-80
2022/03/19 15:06:20;;;;;;;;;;;;;;;3.25;89.64;101087.56;4952759;28;19918;-81
2022/03/19 15:08:45;;;;;;;;;;;;;;;3.20;88.94;101091.91;4952253;28;19993;-81
2022/03/19 15:11:10;;;;;;;;;;;;;;;3.07;88.86;101107.50;4953336;28;20401;-81
2022/03/19 15:13:36;;;;;;;;;;;;;;;3.17;88.02;101110.22;4952292;28;19943;-81
2022/03/19 15:16:02;;;;;;;;;;;;;;;3.07;87.49;101107.50;4949040;29;20293;-81
2022/03/19 15:18:32;;;;;;;;;;;;;;;3.01;87.06;101104.81;4936680;29;19925;-81
2022/03/19 15:20:57;;;;;;;;;;;;;;;3.02;86.82;101095.25;4953027;28;20021;-81
2022/03/19 15:23:23;;;;;;;;;;;;;;;3.20;85.93;101091.91;4935102;29;20021;-81
2022/03/19 15:25:48;;;;;;;;;;;;;;;2.95;85.55;101086.44;4959860;28;19922;-81
2022/03/19 15:28:14;;;;;;;;;;;;;;;2.86;85.56;101081.13;4952574;29;19980;-81
2022/03/19 15:30:39;;;;;;;;;;;;;;;2.95;85.32;101083.81;4952076;28;19929;-80
2022/03/19 15:33:04;;;;;;;;;;;;;;;2.99;85.12;101080.38;4952705;28;19978;-80
2022/03/19 15:35:31;;;;;;;;;;;;;;;2.90;84.58;101080.28;4953077;29;19914;-80
2022/03/19 15:38:00;;;;;;;;;;;;;;;2.89;84.19;101071.56;4950817;28;20285;-81
2022/03/19 15:40:30;;;;;;;;;;;;;;;2.87;84.35;101070.69;4952449;28;19923;-81
2022/03/19 15:42:55;;;;;;;;;;;;;;;2.75;84.39;101088.03;4953496;28;20374;-81
2022/03/19 15:45:21;;;;;;;;;;;;;;;2.81;84.34;101067.09;4960325;28;19923;-81
2022/03/19 15:47:46;;;;;;;;;;;;;;;2.77;84.18;101062.72;4935997;28;19935;-81
2022/03/19 15:50:11;;;;;;;;;;;;;;;2.77;83.59;101055.75;4936303;29;19930;-80
2022/03/19 15:52:38;;;;;;;;;;;;;;;2.63;83.48;101060.88;4952136;28;20382;-81
2022/03/19 15:55:03;;;;;;;;;;;;;;;2.67;83.53;101053.91;4953301;28;19961;-80
2022/03/19 15:57:28;;;;;;;;;;;;;;;2.57;83.15;101062.50;4952285;29;20044;-81
2022/03/19 15:59:54;;;;;;;;;;;;;;;2.54;83.57;101061.63;4935951;29;19922;-80
2022/03/19 16:02:19;;;;;;;;;;;;;;;2.56;83.22;101051.19;4953358;28;19922;-81
2022/03/19 16:04:45;;;;;;;;;;;;;;;2.57;83.13;101042.47;4953339;29;19926;-78
2022/03/19 16:07:11;;;;;;;;;;;;;;;2.53;83.01;101051.16;4949946;28;20181;-80
2022/03/19 16:09:37;;;;;;;;;;;;;;;2.45;83.13;101058.91;4952085;28;19958;-80
2022/03/19 16:12:02;;;;;;;;;;;;;;;2.51;82.51;101052.88;4952048;28;19970;-80
2022/03/19 16:14:27;;;;;;;;;;;;;;;2.41;83.10;101054.53;4953559;28;20013;-80
2022/03/19 16:16:53;;;;;;;;;;;;;;;2.49;83.08;101054.56;4951973;29;19922;-81
2022/03/19 16:19:18;;;;;;;;;;;;;;;2.36;82.79;101045.72;4951938;28;20263;-81
2022/03/19 16:21:43;;;;;;;;;;;;;;;2.39;83.02;101055.34;4953510;28;19922;-82
2022/03/19 16:24:08;;;;;;;;;;;;;;;2.34;83.06;101048.31;4919026;28;19922;-80
2022/03/19 16:26:34;;;;;;;;;;;;;;;2.31;83.06;101045.69;4953332;28;19930;-81
2022/03/19 16:28:59;;;;;;;;;;;;;;;2.39;83.26;101048.38;4952726;28;19965;-78
2022/03/19 16:31:24;;;;;;;;;;;;;;;2.40;82.76;101049.28;4953052;28;19926;-80
2022/03/19 16:33:49;;;;;;;;;;;;;;;2.50;82.17;101049.34;4959974;28;19919;-80
2022/03/19 16:36:15;;;;;;;;;;;;;;;2.54;81.88;101052.91;4953191;28;20337;-80
2022/03/19 16:38:40;;;;;;;;;;;;;;;2.34;81.80;101050.94;4960239;28;20013;-81
2022/03/19 16:41:05;;;;;;;;;;;;;;;2.44;81.53;101056.28;4954809;29;19923;-80
2022/03/19 16:43:31;;;;;;;;;;;;;;;2.39;81.40;101047.50;4953879;28;19914;-79
2022/03/19 16:45:56;;;;;;;;;;;;;;;2.36;81.38;101054.47;4945691;28;19918;-81
2022/03/19 16:48:22;;;;;;;;;;;;;;;2.35;81.33;101050.09;4952019;29;19926;-79
2022/03/19 16:50:48;;;;;;;;;;;;;;;2.42;80.84;101050.16;4953015;29;19931;-79
2022/03/19 16:53:13;;;;;;;;;;;;;;;2.24;81.02;101056.94;4952480;29;19976;-80
2022/03/19 16:55:38;;;;;;;;;;;;;;;2.34;81.00;101050.94;4936703;28;20378;-79
2022/03/19 16:58:04;;;;;;;;;;;;;;;2.22;80.85;101058.66;4955357;28;19918;-81
2022/03/19 17:00:29;;;;;;;;;;;;;;;2.20;81.10;101055.13;4954269;29;19922;-81
2022/03/19 17:02:54;;;;;;;;;;;;;;;2.29;80.89;101062.22;4957020;28;20050;-81
2022/03/19 17:05:20;;;;;;;;;;;;;;;2.28;80.69;101063.97;4954636;29;20372;-81